createdAt,value
2023-04-04T00:00:33.245Z,6.65
2023-04-04T00:03:01.421Z,5.97
2023-04-04T00:05:29.506Z,5.55
2023-04-04T00:07:57.767Z,3.95
2023-04-04T00:10:27.216Z,8.35
2023-04-04T00:12:55.348Z,5.15
2023-04-04T00:15:23.357Z,3.30
2023-04-04T00:17:52.295Z,4.75
2023-04-04T00:20:20.425Z,4.53
2023-04-04T00:22:48.436Z,4.07
2023-04-04T00:25:16.648Z,3.47
2023-04-04T00:27:46.022Z,8.63
2023-04-04T00:30:14.831Z,6.32
2023-04-04T00:32:42.920Z,5.57
2023-04-04T00:35:11.031Z,3.50
2023-04-04T00:37:39.041Z,4.75
2023-04-04T00:40:08.801Z,5.90
2023-04-04T00:42:37.485Z,3.42
2023-04-04T00:45:08.420Z,6.75
2023-04-04T00:47:36.523Z,4.43
2023-04-04T00:50:04.930Z,3.90
2023-04-04T00:52:32.968Z,4.38
2023-04-04T00:55:01.198Z,5.10
2023-04-04T00:57:29.307Z,3.88
2023-04-04T00:59:58.356Z,3.55
2023-04-04T01:02:28.140Z,6.78
2023-04-04T01:04:56.273Z,5.28
2023-04-04T01:07:24.268Z,7.40
2023-04-04T01:09:52.649Z,6.40
2023-04-04T01:12:20.806Z,4.75
2023-04-04T01:14:48.889Z,3.83
2023-04-04T01:17:16.993Z,4.25
2023-04-04T01:19:49.686Z,7.60
2023-04-04T01:22:17.776Z,6.57
2023-04-04T01:24:46.015Z,4.43
2023-04-04T01:27:16.325Z,4.93
2023-04-04T01:29:44.529Z,4.18
2023-04-04T01:32:14.230Z,6.47
2023-04-04T01:34:45.592Z,6.45
2023-04-04T01:37:17.773Z,5.05
2023-04-04T01:39:50.358Z,3.33
2023-04-04T01:42:20.454Z,5.50
2023-04-04T01:44:48.523Z,7.93
2023-04-04T01:47:17.027Z,3.20
2023-04-04T01:49:45.245Z,7.00
2023-04-04T01:52:13.354Z,5.78
2023-04-04T01:54:41.548Z,3.10
2023-04-04T01:57:09.556Z,4.00
2023-04-04T01:59:39.001Z,3.92
2023-04-04T02:02:07.382Z,7.72
2023-04-04T02:04:35.466Z,4.22
2023-04-04T02:07:03.652Z,5.28
2023-04-04T02:09:31.682Z,4.90
2023-04-04T02:12:00.021Z,6.13
2023-04-04T02:14:28.882Z,5.32
2023-04-04T02:16:58.657Z,4.65
2023-04-04T02:19:27.302Z,7.53
2023-04-04T02:21:56.535Z,3.65
2023-04-04T02:24:24.730Z,6.03
2023-04-04T02:26:53.920Z,5.47
2023-04-04T02:29:21.967Z,4.00
2023-04-04T02:31:50.059Z,4.55
2023-04-04T02:34:19.534Z,5.13
2023-04-04T02:36:48.056Z,4.05
2023-04-04T02:39:16.101Z,4.00
2023-04-04T02:41:44.131Z,6.13
2023-04-04T02:44:12.363Z,4.72
2023-04-04T02:46:40.496Z,5.40
2023-04-04T02:49:08.643Z,3.33
2023-04-04T02:51:38.053Z,4.47
2023-04-04T02:54:06.418Z,4.28
2023-04-04T02:56:34.979Z,6.35
2023-04-04T02:59:03.700Z,4.57
2023-04-04T03:01:32.416Z,7.00
2023-04-04T03:04:00.669Z,7.47
2023-04-04T03:06:28.713Z,5.03
2023-04-04T03:08:58.134Z,6.03
2023-04-04T03:11:26.318Z,5.82
2023-04-04T03:13:56.063Z,5.05
2023-04-04T03:16:24.146Z,5.32
2023-04-04T03:18:52.325Z,7.82
2023-04-04T03:21:20.353Z,5.30
2023-04-04T03:23:48.373Z,4.95
2023-04-04T03:26:17.783Z,9.95
2023-04-04T03:28:45.816Z,11.85
2023-04-04T03:31:13.840Z,8.05
2023-04-04T03:33:43.107Z,4.13
2023-04-04T03:36:13.080Z,4.18
2023-04-04T03:38:43.830Z,7.68
2023-04-04T03:41:11.937Z,6.80
2023-04-04T03:43:41.342Z,3.30
2023-04-04T03:46:09.542Z,3.58
2023-04-04T03:48:37.709Z,6.60
2023-04-04T03:51:05.915Z,6.13
2023-04-04T03:53:35.823Z,4.47
2023-04-04T03:56:03.955Z,5.18
2023-04-04T03:58:31.989Z,3.50
2023-04-04T04:01:01.414Z,3.80
2023-04-04T04:03:29.550Z,5.18
2023-04-04T04:05:58.087Z,6.13
2023-04-04T04:08:26.384Z,5.05
2023-04-04T04:10:54.611Z,4.28
2023-04-04T04:13:23.033Z,4.90
2023-04-04T04:15:51.131Z,5.00
2023-04-04T04:18:20.776Z,4.38
2023-04-04T04:20:48.892Z,5.47
2023-04-04T04:23:17.003Z,4.38
2023-04-04T04:25:45.049Z,5.22
2023-04-04T04:28:13.140Z,4.40
2023-04-04T04:30:41.460Z,4.05
2023-04-04T04:33:09.699Z,5.88
2023-04-04T04:35:39.893Z,4.63
2023-04-04T04:38:08.348Z,3.63
2023-04-04T04:40:36.782Z,5.63
2023-04-04T04:43:04.851Z,4.47
2023-04-04T04:45:32.917Z,4.70
2023-04-04T04:48:01.359Z,4.57
2023-04-04T04:50:29.405Z,3.88
2023-04-04T04:52:59.159Z,7.15
2023-04-04T04:55:27.705Z,6.22
2023-04-04T04:57:57.880Z,4.95
2023-04-04T05:00:25.913Z,4.97
2023-04-04T05:02:56.429Z,7.07
2023-04-04T05:05:24.630Z,4.25
2023-04-04T05:07:52.674Z,4.15
2023-04-04T05:10:22.074Z,6.13
2023-04-04T05:12:50.151Z,3.65
2023-04-04T05:15:18.620Z,4.32
2023-04-04T05:17:46.996Z,6.97
2023-04-04T05:20:15.645Z,7.20
2023-04-04T05:22:46.530Z,7.57
2023-04-04T05:25:15.405Z,6.63
2023-04-04T05:27:48.070Z,9.07
2023-04-04T05:30:16.352Z,6.43
2023-04-04T05:32:46.502Z,9.98
2023-04-04T05:35:15.459Z,6.50
2023-04-04T05:37:43.671Z,5.40
2023-04-04T05:40:13.263Z,7.00
2023-04-04T05:42:42.744Z,5.00
2023-04-04T05:45:12.988Z,5.15
2023-04-04T05:47:45.273Z,5.47
2023-04-04T05:50:13.419Z,4.40
2023-04-04T05:52:41.742Z,4.35
2023-04-04T05:55:10.804Z,5.28
2023-04-04T05:57:39.077Z,5.30
2023-04-04T06:00:09.912Z,4.15
2023-04-04T06:02:39.584Z,4.82
2023-04-04T06:05:09.075Z,5.50
2023-04-04T06:07:37.357Z,5.75
2023-04-04T06:10:05.977Z,5.18
2023-04-04T06:12:34.171Z,6.07
2023-04-04T06:15:04.714Z,6.43
2023-04-04T06:17:32.831Z,5.38
2023-04-04T06:20:02.502Z,6.38
2023-04-04T06:22:30.806Z,3.88
2023-04-04T06:24:58.940Z,8.55
2023-04-04T06:27:27.221Z,5.65
2023-04-04T06:29:55.397Z,6.50
2023-04-04T06:32:23.606Z,6.13
2023-04-04T06:34:51.826Z,8.25
2023-04-04T06:37:21.493Z,6.88
2023-04-04T06:39:49.620Z,7.82
2023-04-04T06:42:17.735Z,3.72
2023-04-04T06:44:45.856Z,8.82
2023-04-04T06:47:13.954Z,4.30
2023-04-04T06:49:42.536Z,6.43
2023-04-04T06:52:10.665Z,4.35
2023-04-04T06:54:40.247Z,11.20
2023-04-04T06:57:08.403Z,5.07
2023-04-04T06:59:36.680Z,5.45
2023-04-04T07:02:04.771Z,4.15
2023-04-04T07:04:35.198Z,7.28
2023-04-04T07:07:03.768Z,8.98
2023-04-04T07:09:32.033Z,7.35
2023-04-04T07:12:01.579Z,6.38
2023-04-04T07:14:29.945Z,7.10
2023-04-04T07:16:58.336Z,4.95
2023-04-04T07:19:28.836Z,6.07
2023-04-04T07:21:57.058Z,4.35
2023-04-04T07:24:25.331Z,4.13
2023-04-04T07:26:53.732Z,5.80
2023-04-04T07:29:23.984Z,4.63
2023-04-04T07:31:52.302Z,4.53
2023-04-04T07:34:20.930Z,6.97
2023-04-04T07:36:49.141Z,6.95
2023-04-04T07:39:18.479Z,5.47
2023-04-04T07:41:46.771Z,5.65
2023-04-04T07:44:15.936Z,3.45
2023-04-04T07:46:47.963Z,6.03
2023-04-04T07:49:24.110Z,6.38
2023-04-04T07:51:52.199Z,4.82
2023-04-04T07:54:20.340Z,4.10
2023-04-04T07:56:48.754Z,4.18
2023-04-04T07:59:17.055Z,6.28
2023-04-04T08:01:47.411Z,5.88
2023-04-04T08:04:15.805Z,11.10
2023-04-04T08:06:44.069Z,5.80
2023-04-04T08:09:12.239Z,4.45
2023-04-04T08:11:40.454Z,4.70
2023-04-04T08:14:11.902Z,5.03
2023-04-04T08:16:40.311Z,7.20
2023-04-04T08:19:09.920Z,5.57
2023-04-04T08:21:38.078Z,5.45
2023-04-04T08:24:06.443Z,3.80
2023-04-04T08:26:34.554Z,4.57
2023-04-04T08:29:02.708Z,10.52
2023-04-04T08:31:30.829Z,4.05
2023-04-04T08:33:58.981Z,5.53
2023-04-04T08:36:28.687Z,5.35
2023-04-04T08:38:56.838Z,7.07
2023-04-04T08:41:25.254Z,4.65
2023-04-04T08:43:54.837Z,4.38
2023-04-04T08:46:23.216Z,6.47
2023-04-04T08:48:52.130Z,4.60
2023-04-04T08:51:20.828Z,6.55
2023-04-04T08:53:50.326Z,7.70
2023-04-04T08:56:18.585Z,5.93
2023-04-04T08:58:46.864Z,8.93
2023-04-04T09:01:16.542Z,8.43
2023-04-04T09:03:44.737Z,5.43
2023-04-04T09:06:12.809Z,4.32
2023-04-04T09:08:41.005Z,5.50
2023-04-04T09:11:10.590Z,3.85
2023-04-04T09:13:41.396Z,5.88
2023-04-04T09:16:10.215Z,5.78
2023-04-04T09:18:38.407Z,6.18
2023-04-04T09:21:13.500Z,4.35
2023-04-04T09:23:41.636Z,7.07
2023-04-04T09:26:13.245Z,5.18
2023-04-04T09:28:42.169Z,3.72
2023-04-04T09:31:10.569Z,3.45
2023-04-04T09:33:39.486Z,4.78
2023-04-04T09:36:10.367Z,5.63
2023-04-04T09:38:39.188Z,4.82
2023-04-04T09:41:08.123Z,4.80
2023-04-04T09:43:38.646Z,3.50
2023-04-04T09:46:06.833Z,2.80
2023-04-04T09:48:37.034Z,6.38
2023-04-04T09:51:06.032Z,7.50
2023-04-04T09:53:37.182Z,4.65
2023-04-04T09:56:06.143Z,3.92
2023-04-04T09:58:36.484Z,4.85
2023-04-04T10:01:09.495Z,3.38
2023-04-04T10:03:39.171Z,5.85
2023-04-04T10:06:09.447Z,8.15
2023-04-04T10:08:41.655Z,6.25
2023-04-04T10:11:12.396Z,4.78
2023-04-04T10:13:44.265Z,6.43
2023-04-04T10:16:14.029Z,4.57
2023-04-04T10:18:42.283Z,4.75
2023-04-04T10:23:43.064Z,6.35
2023-04-04T10:26:12.860Z,8.60
2023-04-04T10:28:42.527Z,6.15
2023-04-04T10:31:15.216Z,6.18
2023-04-04T10:33:47.980Z,5.53
2023-04-04T10:36:16.187Z,5.57
2023-04-04T10:38:46.112Z,4.60
2023-04-04T10:41:16.138Z,5.00
2023-04-04T10:43:44.464Z,4.47
2023-04-04T10:46:16.918Z,4.45
2023-04-04T10:48:45.267Z,7.35
2023-04-04T10:51:13.487Z,6.35
2023-04-04T10:53:41.682Z,5.53
2023-04-04T10:56:09.947Z,5.72
2023-04-04T10:58:41.797Z,4.72
2023-04-04T11:01:10.230Z,5.38
2023-04-04T11:04:12.610Z,4.70
2023-04-04T11:07:08.900Z,4.15
2023-04-04T11:09:53.588Z,7.45
2023-04-04T11:12:29.089Z,5.85
2023-04-04T11:14:59.181Z,7.55
2023-04-04T11:18:14.359Z,7.00
2023-04-04T11:20:49.939Z,3.80
2023-04-04T11:23:22.116Z,5.38
2023-04-04T11:25:53.692Z,6.30
2023-04-04T11:28:29.700Z,7.80
2023-04-04T11:33:56.612Z,5.97
2023-04-04T11:36:50.860Z,6.05
2023-04-04T11:39:28.758Z,4.97
2023-04-04T11:41:58.959Z,6.15
2023-04-04T11:44:30.567Z,5.10
2023-04-04T11:47:02.699Z,4.55
2023-04-04T11:49:32.316Z,6.65
2023-04-04T11:52:00.453Z,4.32
2023-04-04T11:54:32.191Z,4.60
2023-04-04T11:57:00.452Z,4.72
2023-04-04T11:59:28.718Z,5.78
2023-04-04T12:01:57.321Z,6.00
2023-04-04T12:04:27.730Z,5.20
2023-04-04T12:06:56.668Z,7.03
2023-04-04T12:09:26.706Z,5.68
2023-04-04T12:11:58.240Z,5.15
2023-04-04T12:14:27.315Z,7.22
2023-04-04T12:16:56.828Z,5.15
2023-04-04T12:19:25.118Z,6.38
2023-04-04T12:21:53.858Z,4.55
2023-04-04T12:24:22.038Z,5.28
2023-04-04T12:26:51.636Z,5.75
2023-04-04T12:29:23.250Z,4.88
2023-04-04T12:31:51.776Z,6.80
2023-04-04T12:34:20.466Z,4.63
2023-04-04T12:36:49.230Z,5.20
2023-04-04T12:39:18.158Z,5.68
2023-04-04T12:41:50.252Z,6.43
2023-04-04T12:44:29.328Z,5.93
2023-04-04T12:47:01.281Z,5.32
2023-04-04T12:49:30.586Z,4.63
2023-04-04T12:52:00.838Z,7.53
2023-04-04T12:54:29.856Z,4.40
2023-04-04T12:56:58.630Z,6.40
2023-04-04T12:59:31.056Z,6.70
2023-04-04T13:01:59.382Z,4.30
2023-04-04T13:04:27.635Z,3.05
2023-04-04T13:06:55.970Z,6.05
2023-04-04T13:09:24.772Z,6.82
2023-04-04T13:12:00.001Z,6.22
2023-04-04T13:14:30.550Z,5.82
2023-04-04T13:17:06.262Z,4.40
2023-04-04T13:19:34.546Z,4.80
2023-04-04T13:22:03.030Z,5.13
2023-04-04T13:24:31.164Z,4.30
2023-04-04T13:26:59.434Z,5.95
2023-04-04T13:29:27.955Z,6.18
2023-04-04T13:31:57.715Z,7.22
2023-04-04T13:34:26.902Z,5.97
2023-04-04T13:36:56.465Z,3.22
2023-04-04T13:39:25.205Z,4.95
2023-04-04T13:41:53.550Z,5.25
2023-04-04T13:44:21.699Z,9.15
2023-04-04T13:46:49.880Z,4.53
2023-04-04T13:49:19.460Z,4.07
2023-04-04T13:51:48.744Z,4.38
2023-04-04T13:54:16.877Z,3.95
2023-04-04T13:56:45.350Z,5.43
2023-04-04T13:59:13.566Z,4.68
2023-04-04T14:01:41.869Z,5.75
2023-04-04T14:04:22.731Z,3.75
2023-04-04T14:06:53.534Z,5.55
2023-04-04T14:09:22.212Z,6.63
2023-04-04T14:11:50.478Z,4.15
2023-04-04T14:14:18.756Z,4.97
2023-04-04T14:16:47.346Z,3.97
2023-04-04T14:19:16.158Z,3.17
2023-04-04T14:21:44.267Z,7.15
2023-04-04T14:24:13.894Z,8.05
2023-04-04T14:26:42.083Z,5.88
2023-04-04T14:29:10.308Z,5.32
2023-04-04T14:31:38.522Z,6.20
2023-04-04T14:34:06.839Z,5.78
2023-04-04T14:36:35.690Z,4.30
2023-04-04T14:39:04.027Z,5.03
2023-04-04T14:41:33.669Z,4.85
2023-04-04T14:44:02.463Z,4.03
2023-04-04T14:46:30.901Z,6.03
2023-04-04T14:48:59.143Z,4.97
2023-04-04T14:51:27.792Z,4.97
2023-04-04T14:53:55.936Z,3.78
2023-04-04T14:56:24.058Z,5.22
2023-04-04T14:58:53.671Z,4.20
2023-04-04T15:01:23.009Z,6.75
2023-04-04T15:03:51.558Z,4.00
2023-04-04T15:06:21.532Z,3.70
2023-04-04T15:08:49.783Z,5.05
2023-04-04T15:11:18.184Z,3.70
2023-04-04T15:13:46.311Z,6.35
2023-04-04T15:16:17.755Z,9.13
2023-04-04T15:18:45.910Z,7.90
2023-04-04T15:21:14.313Z,4.47
2023-04-04T15:23:45.379Z,4.07
2023-04-04T15:26:13.534Z,5.85
2023-04-04T15:28:42.400Z,3.38
2023-04-04T15:31:13.093Z,4.07
2023-04-04T15:33:42.952Z,4.13
2023-04-04T15:36:11.215Z,5.90
2023-04-04T15:38:41.628Z,5.63
2023-04-04T15:41:10.304Z,6.60
2023-04-04T15:43:38.527Z,5.75
2023-04-04T15:46:06.931Z,4.07
2023-04-04T15:48:35.579Z,5.03
2023-04-04T15:51:05.973Z,5.18
2023-04-04T15:53:34.436Z,6.65
2023-04-04T15:56:03.077Z,6.35
2023-04-04T15:58:31.338Z,5.88
2023-04-04T16:00:59.587Z,8.38
2023-04-04T16:03:28.006Z,12.18
2023-04-04T16:05:56.546Z,5.18
2023-04-04T16:08:26.293Z,4.13
2023-04-04T16:10:54.623Z,5.82
2023-04-04T16:13:24.907Z,4.25
2023-04-04T16:15:53.197Z,5.15
2023-04-04T16:18:21.472Z,5.70
2023-04-04T16:20:49.602Z,6.25
2023-04-04T16:23:18.123Z,6.93
2023-04-04T16:25:47.860Z,4.45
2023-04-04T16:28:16.032Z,4.53
2023-04-04T16:30:44.316Z,5.47
2023-04-04T16:33:12.580Z,3.95
2023-04-04T16:35:40.972Z,5.55
2023-04-04T16:38:09.300Z,4.00
2023-04-04T16:40:37.444Z,5.95
2023-04-04T16:43:06.993Z,5.68
2023-04-04T16:45:35.426Z,5.63
2023-04-04T16:48:04.057Z,4.15
2023-04-04T16:50:32.122Z,5.10
2023-04-04T16:53:00.929Z,4.10
2023-04-04T16:55:29.304Z,6.15
2023-04-04T16:57:57.574Z,4.80
2023-04-04T17:00:27.051Z,5.28
2023-04-04T17:02:57.891Z,5.97
2023-04-04T17:05:26.764Z,7.55
2023-04-04T17:07:54.883Z,5.70
2023-04-04T17:10:22.994Z,4.28
2023-04-04T17:12:51.553Z,6.97
2023-04-04T17:15:19.839Z,4.20
2023-04-04T17:17:49.504Z,7.40
2023-04-04T17:20:19.158Z,4.43
2023-04-04T17:22:47.355Z,4.68
2023-04-04T17:25:15.510Z,6.22
2023-04-04T17:27:43.733Z,7.03
2023-04-04T17:30:13.311Z,7.63
2023-04-04T17:32:41.921Z,5.30
2023-04-04T17:35:11.531Z,5.85
2023-04-04T17:37:39.577Z,6.63
2023-04-04T17:40:09.069Z,9.05
2023-04-04T17:42:37.705Z,6.63
2023-04-04T17:45:06.881Z,6.00
2023-04-04T17:47:35.029Z,5.43
2023-04-04T17:50:03.228Z,6.78
2023-04-04T17:52:33.264Z,5.50
2023-04-04T17:55:03.816Z,10.68
2023-04-04T17:57:31.946Z,6.95
2023-04-04T18:00:00.092Z,6.15
2023-04-04T18:02:28.457Z,5.50
2023-04-04T18:04:57.882Z,7.10
2023-04-04T18:07:26.426Z,6.35
2023-04-04T18:09:55.925Z,4.40
2023-04-04T18:12:24.725Z,5.72
2023-04-04T18:14:53.760Z,6.85
2023-04-04T18:17:22.057Z,7.15
2023-04-04T18:19:50.105Z,7.80
2023-04-04T18:22:18.439Z,6.55
2023-04-04T18:24:48.219Z,6.55
2023-04-04T18:27:18.316Z,6.53
2023-04-04T18:29:46.965Z,5.03
2023-04-04T18:32:15.156Z,8.13
2023-04-04T18:34:43.205Z,7.32
2023-04-04T18:37:12.430Z,8.50
2023-04-04T18:39:40.699Z,7.47
2023-04-04T18:42:10.576Z,8.00
2023-04-04T18:44:40.369Z,6.93
2023-04-04T18:47:08.632Z,9.00
2023-04-04T18:49:37.036Z,9.15
2023-04-04T18:52:05.744Z,9.20
2023-04-04T18:54:33.901Z,6.75
2023-04-04T18:57:02.127Z,7.60
2023-04-04T18:59:30.817Z,7.22
2023-04-04T19:02:00.981Z,8.77
2023-04-04T19:04:29.952Z,10.77
2023-04-04T19:06:58.045Z,9.32
2023-04-04T19:09:26.515Z,8.40
2023-04-04T19:11:54.913Z,10.00
2023-04-04T19:14:22.913Z,8.23
2023-04-04T19:16:52.490Z,6.50
2023-04-04T19:19:22.672Z,5.70
2023-04-04T19:21:50.906Z,6.07
2023-04-04T19:24:19.076Z,6.10
2023-04-04T19:26:47.614Z,7.80
2023-04-04T19:29:17.470Z,9.30
2023-04-04T19:31:45.509Z,6.55
2023-04-04T19:34:15.201Z,14.48
2023-04-04T19:36:44.709Z,14.55
2023-04-04T19:39:12.759Z,14.07
2023-04-04T19:41:41.214Z,13.45
2023-04-04T19:44:16.550Z,10.25
2023-04-04T19:46:44.613Z,9.48
2023-04-04T19:49:12.904Z,7.88
2023-04-04T19:51:42.700Z,7.38
2023-04-04T19:54:17.810Z,9.07
2023-04-04T19:56:47.419Z,9.30
2023-04-04T19:59:48.886Z,8.55
2023-04-04T20:02:40.454Z,6.97
2023-04-04T20:05:25.536Z,7.88
2023-04-04T20:07:53.936Z,6.63
2023-04-04T20:10:37.040Z,7.90
2023-04-04T20:13:06.525Z,7.47
2023-04-04T20:16:11.464Z,8.60
2023-04-04T20:18:39.890Z,42.65
2023-04-04T20:21:09.941Z,67.60
2023-04-04T20:23:49.539Z,71.40
2023-04-04T20:26:55.528Z,36.90
2023-04-04T20:29:26.382Z,11.30
2023-04-04T20:31:56.242Z,9.13
2023-04-04T20:34:33.974Z,9.52
2023-04-04T20:37:05.091Z,10.20
2023-04-04T20:39:41.684Z,17.48
2023-04-04T20:42:19.243Z,12.35
2023-04-04T20:44:50.358Z,7.85
2023-04-04T20:47:32.453Z,8.57
2023-04-04T20:50:00.745Z,8.98
2023-04-04T20:52:28.896Z,9.95
2023-04-04T20:54:56.998Z,11.27
2023-04-04T20:57:25.821Z,12.45
2023-04-04T20:59:55.283Z,7.90
2023-04-04T21:02:23.686Z,8.88
2023-04-04T21:04:52.310Z,9.23
2023-04-04T21:07:39.508Z,8.55
2023-04-04T21:10:45.130Z,7.57
2023-04-04T21:13:13.407Z,8.40
2023-04-04T21:15:42.884Z,8.40
2023-04-04T21:18:11.655Z,5.28
2023-04-04T21:21:11.520Z,7.65
2023-04-04T21:23:45.794Z,11.55
2023-04-04T21:26:29.899Z,9.27
2023-04-04T21:28:58.454Z,6.90
2023-04-04T21:31:29.846Z,5.20
2023-04-04T21:33:58.323Z,6.93
2023-04-04T21:36:29.526Z,6.93
2023-04-04T21:38:58.290Z,7.70
2023-04-04T21:41:27.061Z,7.72
2023-04-04T21:43:55.360Z,8.82
2023-04-04T21:46:25.050Z,9.27
2023-04-04T21:48:54.662Z,6.45
2023-04-04T21:51:22.820Z,6.30
2023-04-04T21:53:51.060Z,7.60
2023-04-04T21:56:19.380Z,6.40
2023-04-04T21:58:47.544Z,6.00
2023-04-04T22:01:15.683Z,4.75
2023-04-04T22:03:43.854Z,7.13
2023-04-04T22:06:13.352Z,9.00
2023-04-04T22:08:41.927Z,8.27
2023-04-04T22:11:13.659Z,7.07
2023-04-04T22:13:46.995Z,7.15
2023-04-04T22:16:16.976Z,6.65
2023-04-04T22:18:46.791Z,9.00
2023-04-04T22:21:16.769Z,6.40
2023-04-04T22:23:44.821Z,6.97
2023-04-04T22:26:14.037Z,11.27
2023-04-04T22:28:45.738Z,8.98
2023-04-04T22:31:13.813Z,8.23
2023-04-04T22:33:41.892Z,8.23
2023-04-04T22:36:10.657Z,9.13
2023-04-04T22:38:40.403Z,8.00
2023-04-04T22:41:08.417Z,9.95
2023-04-04T22:43:36.460Z,5.47
2023-04-04T22:46:04.581Z,6.75
2023-04-04T22:48:38.666Z,7.80
2023-04-04T22:51:06.921Z,8.32
2023-04-04T22:53:35.064Z,9.73
2023-04-04T22:56:04.452Z,7.25
2023-04-04T22:58:32.657Z,7.82
2023-04-04T23:01:00.740Z,16.27
2023-04-04T23:03:28.795Z,7.63
2023-04-04T23:05:56.912Z,9.88
2023-04-04T23:08:24.972Z,11.18
2023-04-04T23:10:53.053Z,11.98
2023-04-04T23:13:23.322Z,17.25
2023-04-04T23:15:51.385Z,10.52
2023-04-04T23:18:19.541Z,12.75
2023-04-04T23:20:54.104Z,8.77
2023-04-04T23:23:24.501Z,8.23
2023-04-04T23:25:54.516Z,8.00
2023-04-04T23:28:24.218Z,9.40
2023-04-04T23:30:53.004Z,8.77
2023-04-04T23:33:21.114Z,7.07
2023-04-04T23:35:49.307Z,8.80
2023-04-04T23:38:17.394Z,8.68
2023-04-04T23:40:45.951Z,6.60
2023-04-04T23:43:13.983Z,7.47
2023-04-04T23:45:43.340Z,9.48
2023-04-04T23:48:11.402Z,10.52
2023-04-04T23:50:41.432Z,8.23
2023-04-04T23:53:09.766Z,6.38
2023-04-04T23:55:38.208Z,9.90
2023-04-04T23:58:06.608Z,8.60
